createdAt,value
2019-03-29T00:02:17.080Z,17.43
2019-03-29T00:04:50.280Z,18.07
2019-03-29T00:07:22.608Z,17.40
2019-03-29T00:09:54.777Z,17.57
2019-03-29T00:12:28.489Z,18.37
2019-03-29T00:15:01.440Z,17.07
2019-03-29T00:17:35.552Z,18.33
2019-03-29T00:20:09.569Z,18.27
2019-03-29T00:22:45.485Z,19.03
2019-03-29T00:25:17.628Z,17.17
2019-03-29T00:27:49.599Z,31.40
2019-03-29T00:30:22.580Z,24.03
2019-03-29T00:32:57.904Z,21.60
2019-03-29T00:35:30.033Z,21.87
2019-03-29T00:38:03.790Z,20.87
2019-03-29T00:40:36.232Z,19.53
2019-03-29T00:43:09.088Z,20.53
2019-03-29T00:45:43.851Z,19.13
2019-03-29T00:48:17.695Z,20.53
2019-03-29T00:50:49.610Z,22.00
2019-03-29T00:53:22.577Z,21.47
2019-03-29T00:55:55.198Z,21.73
2019-03-29T00:58:28.911Z,19.20
2019-03-29T01:01:02.553Z,21.60
2019-03-29T01:03:34.732Z,21.80
2019-03-29T01:06:07.755Z,19.00
2019-03-29T01:08:40.698Z,18.27
2019-03-29T01:11:16.415Z,18.07
2019-03-29T01:13:50.958Z,21.67
2019-03-29T01:16:25.224Z,18.30
2019-03-29T01:18:58.749Z,19.43
2019-03-29T01:21:33.385Z,18.83
2019-03-29T01:24:07.856Z,18.37
2019-03-29T01:26:41.041Z,21.57
2019-03-29T01:29:13.652Z,19.87
2019-03-29T01:31:46.783Z,18.67
2019-03-29T01:34:18.900Z,19.90
2019-03-29T01:36:53.209Z,19.67
2019-03-29T01:39:25.697Z,18.40
2019-03-29T01:42:00.391Z,20.90
2019-03-29T01:44:35.159Z,18.50
2019-03-29T01:47:09.822Z,17.73
2019-03-29T01:49:44.687Z,18.67
2019-03-29T01:52:17.709Z,18.83
2019-03-29T01:54:50.662Z,18.43
2019-03-29T01:57:24.637Z,17.50
2019-03-29T01:59:58.695Z,17.70
2019-03-29T02:02:31.826Z,18.03
2019-03-29T02:05:07.294Z,16.93
2019-03-29T02:07:44.145Z,17.20
2019-03-29T02:10:17.989Z,17.20
2019-03-29T02:12:49.922Z,17.73
2019-03-29T02:15:21.921Z,18.17
2019-03-29T02:17:53.859Z,17.40
2019-03-29T02:20:25.693Z,16.07
2019-03-29T02:22:57.999Z,16.97
2019-03-29T02:25:32.953Z,16.60
2019-03-29T02:28:04.859Z,16.00
2019-03-29T02:30:38.046Z,18.23
2019-03-29T02:33:11.204Z,16.20
2019-03-29T02:35:45.065Z,16.47
2019-03-29T02:38:17.172Z,17.57
2019-03-29T02:40:51.000Z,16.70
2019-03-29T02:43:23.205Z,18.20
2019-03-29T02:45:57.613Z,17.37
2019-03-29T02:48:32.699Z,18.10
2019-03-29T02:51:05.270Z,17.13
2019-03-29T02:53:38.245Z,16.83
2019-03-29T02:56:11.180Z,16.27
2019-03-29T02:58:44.241Z,20.17
2019-03-29T03:01:17.939Z,18.90
2019-03-29T03:03:52.130Z,21.23
2019-03-29T03:06:26.263Z,17.43
2019-03-29T03:09:12.392Z,18.33
2019-03-29T03:11:36.771Z,19.17
2019-03-29T03:14:11.338Z,18.57
2019-03-29T03:16:44.345Z,16.57
2019-03-29T03:19:18.397Z,17.37
2019-03-29T03:21:50.469Z,18.07
2019-03-29T03:24:22.292Z,17.10
2019-03-29T03:26:57.073Z,18.80
2019-03-29T03:29:31.443Z,19.20
2019-03-29T03:32:05.210Z,20.63
2019-03-29T03:34:37.241Z,17.80
2019-03-29T03:37:11.340Z,17.83
2019-03-29T03:39:44.329Z,20.03
2019-03-29T03:42:17.659Z,18.77
2019-03-29T03:44:54.042Z,17.60
2019-03-29T03:47:25.798Z,17.30
2019-03-29T03:50:00.882Z,20.10
2019-03-29T03:52:34.277Z,18.83
2019-03-29T03:55:07.511Z,19.37
2019-03-29T03:57:40.575Z,19.13
2019-03-29T04:00:36.427Z,18.37
2019-03-29T04:03:09.438Z,18.67
2019-03-29T04:05:41.192Z,19.20
2019-03-29T04:08:15.090Z,18.27
2019-03-29T04:11:00.796Z,18.50
2019-03-29T04:13:35.741Z,19.43
2019-03-29T04:16:07.564Z,16.60
2019-03-29T04:18:42.273Z,17.27
2019-03-29T04:21:18.458Z,19.20
2019-03-29T04:23:53.357Z,18.70
2019-03-29T04:26:25.529Z,18.20
2019-03-29T04:29:04.919Z,18.33
2019-03-29T04:31:36.282Z,18.27
2019-03-29T04:34:09.464Z,18.37
2019-03-29T04:36:41.285Z,17.40
2019-03-29T04:39:14.249Z,16.13
2019-03-29T04:41:47.865Z,14.70
2019-03-29T04:44:19.829Z,16.47
2019-03-29T04:46:54.329Z,17.83
2019-03-29T04:49:26.151Z,17.73
2019-03-29T04:51:58.731Z,17.23
2019-03-29T04:54:31.751Z,16.23
2019-03-29T04:57:03.886Z,14.73
2019-03-29T04:59:38.330Z,17.70
2019-03-29T05:02:14.637Z,17.90
2019-03-29T05:04:48.465Z,18.40
2019-03-29T05:07:22.746Z,17.63
2019-03-29T05:09:55.719Z,17.97
2019-03-29T05:12:28.725Z,17.37
2019-03-29T05:15:04.635Z,18.30
2019-03-29T05:17:37.793Z,20.60
2019-03-29T05:20:14.774Z,18.70
2019-03-29T05:22:46.951Z,21.50
2019-03-29T05:25:21.421Z,20.27
2019-03-29T05:27:57.778Z,18.30
2019-03-29T05:30:31.764Z,30.80
2019-03-29T05:33:05.123Z,35.30
2019-03-29T05:35:37.986Z,26.63
2019-03-29T05:38:10.914Z,26.30
2019-03-29T05:40:45.506Z,23.20
2019-03-29T05:43:19.180Z,20.70
2019-03-29T05:45:52.985Z,20.13
2019-03-29T05:48:25.422Z,19.33
2019-03-29T05:50:57.206Z,21.13
2019-03-29T05:53:29.220Z,19.57
2019-03-29T05:56:01.776Z,17.30
2019-03-29T05:58:34.945Z,18.40
2019-03-29T06:01:06.839Z,18.87
2019-03-29T06:03:40.929Z,19.17
2019-03-29T06:06:13.926Z,22.63
2019-03-29T06:08:47.108Z,19.63
2019-03-29T06:11:20.001Z,20.80
2019-03-29T06:13:55.246Z,22.80
2019-03-29T06:16:38.890Z,21.87
2019-03-29T06:19:05.787Z,23.03
2019-03-29T06:21:39.655Z,20.97
2019-03-29T06:24:12.943Z,21.17
2019-03-29T06:26:48.166Z,20.97
2019-03-29T06:29:20.678Z,20.67
2019-03-29T06:31:56.651Z,21.33
2019-03-29T06:34:30.879Z,19.80
2019-03-29T06:37:05.650Z,21.07
2019-03-29T06:39:38.338Z,26.93
2019-03-29T06:42:13.494Z,26.30
2019-03-29T06:44:46.357Z,25.23
2019-03-29T06:47:21.146Z,24.60
2019-03-29T06:49:53.273Z,24.90
2019-03-29T06:52:28.581Z,30.80
2019-03-29T06:55:05.502Z,36.53
2019-03-29T06:57:39.453Z,35.90
2019-03-29T07:00:13.622Z,31.13
2019-03-29T07:02:48.183Z,29.17
2019-03-29T07:05:20.316Z,30.13
2019-03-29T07:07:53.237Z,27.80
2019-03-29T07:10:25.493Z,31.10
2019-03-29T07:12:59.963Z,27.47
2019-03-29T07:15:33.127Z,29.60
2019-03-29T07:18:10.473Z,28.10
2019-03-29T07:20:45.622Z,27.77
2019-03-29T07:23:18.407Z,26.17
2019-03-29T07:25:52.173Z,26.77
2019-03-29T07:28:25.875Z,23.20
2019-03-29T07:31:00.632Z,23.00
2019-03-29T07:33:32.461Z,24.10
2019-03-29T07:36:06.466Z,27.03
2019-03-29T07:38:38.825Z,29.47
2019-03-29T07:41:11.526Z,27.97
2019-03-29T07:43:44.622Z,32.70
2019-03-29T07:46:19.471Z,28.30
2019-03-29T07:48:53.033Z,24.30
2019-03-29T07:51:25.728Z,21.90
2019-03-29T07:54:01.282Z,19.50
2019-03-29T07:56:37.321Z,22.27
2019-03-29T07:59:11.583Z,21.20
2019-03-29T08:01:45.503Z,18.80
2019-03-29T08:04:21.632Z,19.60
2019-03-29T08:06:53.795Z,18.57
2019-03-29T08:09:27.191Z,20.40
2019-03-29T08:11:59.528Z,19.20
2019-03-29T08:14:50.801Z,19.80
2019-03-29T08:17:24.111Z,20.10
2019-03-29T08:20:24.388Z,22.93
2019-03-29T08:22:32.782Z,22.00
2019-03-29T08:25:05.675Z,20.97
2019-03-29T08:27:38.656Z,21.20
2019-03-29T08:30:10.685Z,21.23
2019-03-29T08:32:48.071Z,21.37
2019-03-29T08:35:21.713Z,23.17
2019-03-29T08:37:54.187Z,22.97
2019-03-29T08:40:26.653Z,23.23
2019-03-29T08:43:00.593Z,24.00
2019-03-29T08:45:32.780Z,26.23
2019-03-29T08:48:06.990Z,25.40
2019-03-29T08:50:40.398Z,27.00
2019-03-29T08:53:14.789Z,24.10
2019-03-29T08:55:46.845Z,24.80
2019-03-29T08:58:20.533Z,25.37
2019-03-29T09:00:52.638Z,25.43
2019-03-29T09:03:26.198Z,24.07
2019-03-29T09:05:59.887Z,24.30
2019-03-29T09:08:32.817Z,23.70
2019-03-29T09:11:07.562Z,25.03
2019-03-29T09:13:40.856Z,23.50
2019-03-29T09:16:14.753Z,26.77
2019-03-29T09:18:46.834Z,26.97
2019-03-29T09:21:20.812Z,24.17
2019-03-29T09:23:53.846Z,23.80
2019-03-29T09:26:25.719Z,23.43
2019-03-29T09:29:00.585Z,23.20
2019-03-29T09:31:34.371Z,21.67
2019-03-29T09:34:08.916Z,23.37
2019-03-29T09:36:40.903Z,24.27
2019-03-29T09:39:14.077Z,21.90
2019-03-29T09:41:47.936Z,23.10
2019-03-29T09:44:20.087Z,31.50
2019-03-29T09:46:51.897Z,30.83
2019-03-29T09:49:25.920Z,38.00
2019-03-29T09:51:59.409Z,31.00
2019-03-29T09:54:32.048Z,42.03
2019-03-29T09:57:04.973Z,31.47
2019-03-29T09:59:37.969Z,25.43
2019-03-29T10:02:12.014Z,23.40
2019-03-29T10:04:44.166Z,20.87
2019-03-29T10:07:18.121Z,22.93
2019-03-29T10:09:51.004Z,22.00
2019-03-29T10:12:23.164Z,20.23
2019-03-29T10:14:56.178Z,21.53
2019-03-29T10:17:29.228Z,21.13
2019-03-29T10:20:03.156Z,23.10
2019-03-29T10:22:35.997Z,20.10
2019-03-29T10:25:19.342Z,20.47
2019-03-29T10:27:46.795Z,23.00
2019-03-29T10:30:42.105Z,18.63
2019-03-29T10:36:49.515Z,18.00
2019-03-29T10:39:26.418Z,17.43
2019-03-29T10:41:59.110Z,20.00
2019-03-29T10:44:32.325Z,17.30
2019-03-29T10:47:04.084Z,16.80
2019-03-29T10:49:40.020Z,18.47
2019-03-29T10:52:15.206Z,22.73
2019-03-29T10:54:50.058Z,19.00
2019-03-29T10:57:24.579Z,17.10
2019-03-29T10:59:58.321Z,17.13
2019-03-29T11:02:33.772Z,14.50
2019-03-29T11:05:06.403Z,15.67
2019-03-29T11:07:38.694Z,15.47
2019-03-29T11:10:19.914Z,15.63
2019-03-29T11:16:17.077Z,15.03
2019-03-29T11:18:50.309Z,19.50
2019-03-29T11:21:22.098Z,16.53
2019-03-29T11:23:54.256Z,19.20
2019-03-29T11:29:50.253Z,17.70
2019-03-29T11:32:23.460Z,17.50
2019-03-29T11:34:56.413Z,17.23
2019-03-29T11:37:31.220Z,17.20
2019-03-29T11:40:06.092Z,16.70
2019-03-29T11:42:38.574Z,14.13
2019-03-29T11:45:11.744Z,14.50
2019-03-29T11:47:46.556Z,16.83
2019-03-29T11:50:20.403Z,15.30
2019-03-29T11:52:55.323Z,15.03
2019-03-29T11:55:30.598Z,15.30
2019-03-29T11:58:03.644Z,14.57
2019-03-29T12:00:37.804Z,16.10
2019-03-29T12:03:13.071Z,15.77
2019-03-29T12:05:46.967Z,14.90
2019-03-29T12:08:21.689Z,15.47
2019-03-29T12:10:54.112Z,15.90
2019-03-29T12:13:40.015Z,16.30
2019-03-29T12:16:03.539Z,15.17
2019-03-29T12:18:35.754Z,14.53
2019-03-29T12:21:10.319Z,16.03
2019-03-29T12:23:44.509Z,16.50
2019-03-29T12:26:17.773Z,14.27
2019-03-29T12:28:51.583Z,13.83
2019-03-29T12:31:25.429Z,13.90
2019-03-29T12:33:59.742Z,14.60
2019-03-29T12:36:33.002Z,16.20
2019-03-29T12:39:08.015Z,13.40
2019-03-29T12:41:42.656Z,15.00
2019-03-29T12:44:16.613Z,14.43
2019-03-29T12:46:50.882Z,16.10
2019-03-29T12:49:23.653Z,13.30
2019-03-29T12:51:58.423Z,14.80
2019-03-29T12:54:32.947Z,14.47
2019-03-29T12:57:06.838Z,15.90
2019-03-29T12:59:38.910Z,15.67
2019-03-29T13:02:14.359Z,17.90
2019-03-29T13:04:48.061Z,16.87
2019-03-29T13:07:20.778Z,14.77
2019-03-29T13:09:53.764Z,18.87
2019-03-29T13:12:26.436Z,16.37
2019-03-29T13:15:00.489Z,15.90
2019-03-29T13:17:32.879Z,20.00
2019-03-29T13:20:06.342Z,14.33
2019-03-29T13:22:38.331Z,14.67
2019-03-29T13:25:12.213Z,14.20
2019-03-29T13:27:45.379Z,14.40
2019-03-29T13:30:20.741Z,15.03
2019-03-29T13:32:55.719Z,15.27
2019-03-29T13:35:31.524Z,17.03
2019-03-29T13:38:07.526Z,16.30
2019-03-29T13:40:41.868Z,16.23
2019-03-29T13:43:15.196Z,15.40
2019-03-29T13:45:48.297Z,18.90
2019-03-29T13:48:23.012Z,17.00
2019-03-29T13:50:59.440Z,17.57
2019-03-29T13:53:31.534Z,15.20
2019-03-29T13:56:07.557Z,12.07
2019-03-29T13:58:40.826Z,14.20
2019-03-29T14:01:14.461Z,14.97
2019-03-29T14:03:47.255Z,15.73
2019-03-29T14:06:21.204Z,28.23
2019-03-29T14:08:53.202Z,16.20
2019-03-29T14:11:25.045Z,14.30
2019-03-29T14:13:59.014Z,15.33
2019-03-29T14:16:33.049Z,15.63
2019-03-29T14:19:06.367Z,13.13
2019-03-29T14:21:39.344Z,14.60
2019-03-29T14:24:15.675Z,13.00
2019-03-29T14:26:47.763Z,13.97
2019-03-29T14:29:21.974Z,15.10
2019-03-29T14:31:54.429Z,14.63
2019-03-29T14:34:30.178Z,13.30
2019-03-29T14:37:03.135Z,12.80
2019-03-29T14:39:37.706Z,14.50
2019-03-29T14:42:14.290Z,12.60
2019-03-29T14:44:52.743Z,11.30
2019-03-29T14:47:38.119Z,14.20
2019-03-29T14:50:03.211Z,12.53
2019-03-29T14:52:36.440Z,12.00
2019-03-29T14:55:10.359Z,10.37
2019-03-29T14:57:46.871Z,10.93
2019-03-29T15:00:43.104Z,10.60
2019-03-29T15:03:23.358Z,11.63
2019-03-29T15:06:01.496Z,11.13
2019-03-29T15:08:34.051Z,9.87
2019-03-29T15:11:21.241Z,10.80
2019-03-29T15:13:45.292Z,11.63
2019-03-29T15:16:20.574Z,12.93
2019-03-29T15:18:54.438Z,12.73
2019-03-29T15:21:26.334Z,12.30
2019-03-29T15:24:01.135Z,11.43
2019-03-29T15:26:35.414Z,13.50
2019-03-29T15:29:08.266Z,14.17
2019-03-29T15:31:41.490Z,12.87
2019-03-29T15:34:16.022Z,11.03
2019-03-29T15:36:47.802Z,11.77
2019-03-29T15:39:20.521Z,12.43
2019-03-29T15:41:53.479Z,14.70
2019-03-29T15:44:25.564Z,12.23
2019-03-29T15:46:57.558Z,11.30
2019-03-29T15:49:31.454Z,10.90
2019-03-29T15:52:04.572Z,10.40
2019-03-29T15:54:38.686Z,12.83
2019-03-29T15:57:11.764Z,10.87
2019-03-29T15:59:44.669Z,11.90
2019-03-29T16:02:17.528Z,9.80
2019-03-29T16:04:50.578Z,9.90
2019-03-29T16:07:23.722Z,10.53
2019-03-29T16:09:56.850Z,10.90
2019-03-29T16:12:30.599Z,8.97
2019-03-29T16:15:02.690Z,8.90
2019-03-29T16:17:35.625Z,8.70
2019-03-29T16:20:11.109Z,9.73
2019-03-29T16:22:47.252Z,12.53
2019-03-29T16:25:20.598Z,10.70
2019-03-29T16:27:54.390Z,10.03
2019-03-29T16:30:26.477Z,10.70
2019-03-29T16:33:01.361Z,9.77
2019-03-29T16:35:37.573Z,8.90
2019-03-29T16:38:13.422Z,14.63
2019-03-29T16:40:47.849Z,9.63
2019-03-29T16:43:20.854Z,8.10
2019-03-29T16:45:53.888Z,7.73
2019-03-29T16:48:27.150Z,8.73
2019-03-29T16:51:00.347Z,7.87
2019-03-29T16:53:33.258Z,12.57
2019-03-29T16:56:05.816Z,8.10
2019-03-29T16:58:38.802Z,8.50
2019-03-29T17:01:11.814Z,11.00
2019-03-29T17:03:45.405Z,13.70
2019-03-29T17:06:18.641Z,17.23
2019-03-29T17:08:50.835Z,13.57
2019-03-29T17:11:23.760Z,9.07
2019-03-29T17:13:58.075Z,7.50
2019-03-29T17:16:33.146Z,7.17
2019-03-29T17:19:04.907Z,10.10
2019-03-29T17:21:36.996Z,12.80
2019-03-29T17:24:09.920Z,16.43
2019-03-29T17:26:42.922Z,27.13
2019-03-29T17:29:16.048Z,21.27
2019-03-29T17:31:48.181Z,34.00
2019-03-29T17:34:21.894Z,34.77
2019-03-29T17:36:54.932Z,15.27
2019-03-29T17:39:26.751Z,14.87
2019-03-29T17:42:00.027Z,10.17
2019-03-29T17:44:33.161Z,7.87
2019-03-29T17:47:06.023Z,8.40
2019-03-29T17:49:39.207Z,10.37
2019-03-29T17:52:12.297Z,13.63
2019-03-29T17:54:45.057Z,20.60
2019-03-29T17:57:18.158Z,17.87
2019-03-29T17:59:52.514Z,28.33
2019-03-29T18:02:27.209Z,23.27
2019-03-29T18:05:00.050Z,20.60
2019-03-29T18:07:33.124Z,20.37
2019-03-29T18:10:06.724Z,16.37
2019-03-29T18:12:40.112Z,11.67
2019-03-29T18:15:14.013Z,8.70
2019-03-29T18:17:48.369Z,14.20
2019-03-29T18:20:21.029Z,14.70
2019-03-29T18:22:54.190Z,8.20
2019-03-29T18:25:26.649Z,9.80
2019-03-29T18:28:01.459Z,8.03
2019-03-29T18:30:44.258Z,7.90
2019-03-29T18:33:18.297Z,9.00
2019-03-29T18:35:52.324Z,7.67
2019-03-29T18:38:24.997Z,8.13
2019-03-29T18:40:57.690Z,8.83
2019-03-29T18:43:30.254Z,9.90
2019-03-29T18:46:05.023Z,7.90
2019-03-29T18:48:39.258Z,11.63
2019-03-29T18:51:11.365Z,9.10
2019-03-29T18:53:43.708Z,10.53
2019-03-29T18:56:18.689Z,9.13
2019-03-29T18:58:52.367Z,8.00
2019-03-29T19:01:26.044Z,9.13
2019-03-29T19:04:00.787Z,7.80
2019-03-29T19:06:34.381Z,8.43
2019-03-29T19:09:08.062Z,9.30
2019-03-29T19:11:42.526Z,9.93
2019-03-29T19:14:15.829Z,8.37
2019-03-29T19:16:58.919Z,9.43
2019-03-29T19:19:23.652Z,10.57
2019-03-29T19:21:57.595Z,10.33
2019-03-29T19:24:30.545Z,10.90
2019-03-29T19:27:04.468Z,9.43
2019-03-29T19:29:37.771Z,10.43
2019-03-29T19:32:09.606Z,10.10
2019-03-29T19:34:43.428Z,9.90
2019-03-29T19:37:15.521Z,10.83
2019-03-29T19:39:48.623Z,10.20
2019-03-29T19:42:21.499Z,10.30
2019-03-29T19:44:54.802Z,10.40
2019-03-29T19:47:26.748Z,10.40
2019-03-29T19:50:02.267Z,11.27
2019-03-29T19:52:35.827Z,10.87
2019-03-29T19:55:11.570Z,11.27
2019-03-29T19:57:47.427Z,11.03
2019-03-29T20:00:35.589Z,11.40
2019-03-29T20:03:09.896Z,11.47
2019-03-29T20:05:42.614Z,12.50
2019-03-29T20:08:15.706Z,12.63
2019-03-29T20:10:48.808Z,11.97
2019-03-29T20:13:21.750Z,10.83
2019-03-29T20:15:54.749Z,11.97
2019-03-29T20:18:27.116Z,10.57
2019-03-29T20:21:00.674Z,11.40
2019-03-29T20:23:33.853Z,10.63
2019-03-29T20:26:08.488Z,11.60
2019-03-29T20:28:43.650Z,11.27
2019-03-29T20:31:15.856Z,11.60
2019-03-29T20:33:48.869Z,12.23
2019-03-29T20:36:23.038Z,11.13
2019-03-29T20:38:55.028Z,12.30
2019-03-29T20:41:27.506Z,12.53
2019-03-29T20:43:59.762Z,12.00
2019-03-29T20:46:33.384Z,12.30
2019-03-29T20:49:07.014Z,12.57
2019-03-29T20:51:41.171Z,12.33
2019-03-29T20:54:14.898Z,11.90
2019-03-29T20:56:48.299Z,11.50
2019-03-29T20:59:20.937Z,11.43
2019-03-29T21:01:54.797Z,10.57
2019-03-29T21:04:28.561Z,11.17
2019-03-29T21:07:02.053Z,11.80
2019-03-29T21:09:36.006Z,11.30
2019-03-29T21:12:09.075Z,12.60
2019-03-29T21:14:41.942Z,11.87
2019-03-29T21:17:15.036Z,10.40
2019-03-29T21:19:48.285Z,12.47
2019-03-29T21:22:21.027Z,9.07
2019-03-29T21:24:55.554Z,10.73
2019-03-29T21:27:27.506Z,9.70
2019-03-29T21:30:00.302Z,11.43
2019-03-29T21:32:33.076Z,10.47
2019-03-29T21:35:07.466Z,11.30
2019-03-29T21:37:46.014Z,9.90
2019-03-29T21:40:17.985Z,11.47
2019-03-29T21:42:51.334Z,11.50
2019-03-29T21:45:28.924Z,10.67
2019-03-29T21:48:08.882Z,11.97
2019-03-29T21:50:36.110Z,11.73
2019-03-29T21:53:10.071Z,11.13
2019-03-29T21:55:42.174Z,12.73
2019-03-29T21:58:15.149Z,11.10
2019-03-29T22:00:48.294Z,11.20
2019-03-29T22:03:20.432Z,10.10
2019-03-29T22:05:54.233Z,9.50
2019-03-29T22:08:26.867Z,11.10
2019-03-29T22:11:00.249Z,10.53
2019-03-29T22:13:33.190Z,10.33
2019-03-29T22:16:06.180Z,11.20
2019-03-29T22:18:39.194Z,10.40
2019-03-29T22:21:12.404Z,9.87
2019-03-29T22:23:45.493Z,10.73
2019-03-29T22:26:20.290Z,10.30
2019-03-29T22:28:53.399Z,12.27
2019-03-29T22:31:25.276Z,10.27
2019-03-29T22:33:58.503Z,11.27
2019-03-29T22:36:33.410Z,11.10
2019-03-29T22:39:08.218Z,11.20
2019-03-29T22:41:42.318Z,11.83
2019-03-29T22:44:15.347Z,10.73
2019-03-29T22:46:48.426Z,10.57
2019-03-29T22:49:21.408Z,11.30
2019-03-29T22:51:54.407Z,10.23
2019-03-29T22:54:37.831Z,10.83
2019-03-29T22:57:12.501Z,10.50
2019-03-29T22:59:45.459Z,10.60
2019-03-29T23:02:20.204Z,10.40
2019-03-29T23:04:56.143Z,11.37
2019-03-29T23:07:29.511Z,9.47
2019-03-29T23:10:03.875Z,11.40
2019-03-29T23:12:36.442Z,10.97
2019-03-29T23:15:10.149Z,11.57
2019-03-29T23:17:44.322Z,10.10
2019-03-29T23:20:18.640Z,10.60
2019-03-29T23:22:51.712Z,11.40
2019-03-29T23:25:24.913Z,11.87
2019-03-29T23:27:57.591Z,11.87
2019-03-29T23:30:30.419Z,10.50
2019-03-29T23:33:02.692Z,10.10
2019-03-29T23:35:37.152Z,12.03
2019-03-29T23:38:09.653Z,9.47
2019-03-29T23:40:42.470Z,10.43
2019-03-29T23:43:15.911Z,9.57
2019-03-29T23:45:48.733Z,9.80
2019-03-29T23:48:20.496Z,10.03
2019-03-29T23:50:54.649Z,9.93
2019-03-29T23:53:27.264Z,10.17
2019-03-29T23:56:00.600Z,9.93
2019-03-29T23:58:34.049Z,9.67
